sensor_id;sensor_type;location;lat;lon;timestamp;P1;durP1;ratioP1;P2;durP2;ratioP2
61915;SDS011;47868;51.326;6.550;2022-10-16T00:00:02;12.45;;;4.30;;
61915;SDS011;47868;51.326;6.550;2022-10-16T00:02:28;6.65;;;3.50;;
61915;SDS011;47868;51.326;6.550;2022-10-16T00:04:54;11.60;;;3.75;;
61915;SDS011;47868;51.326;6.550;2022-10-16T00:07:20;10.65;;;3.92;;
61915;SDS011;47868;51.326;6.550;2022-10-16T00:09:47;15.88;;;4.22;;
61915;SDS011;47868;51.326;6.550;2022-10-16T00:12:13;7.68;;;3.88;;
61915;SDS011;47868;51.326;6.550;2022-10-16T00:14:39;11.10;;;3.75;;
61915;SDS011;47868;51.326;6.550;2022-10-16T00:17:06;14.15;;;4.30;;
61915;SDS011;47868;51.326;6.550;2022-10-16T00:19:32;7.28;;;3.78;;
61915;SDS011;47868;51.326;6.550;2022-10-16T00:21:58;16.92;;;4.63;;
61915;SDS011;47868;51.326;6.550;2022-10-16T00:24:24;8.77;;;3.75;;
61915;SDS011;47868;51.326;6.550;2022-10-16T00:26:51;10.60;;;3.63;;
61915;SDS011;47868;51.326;6.550;2022-10-16T00:29:17;10.68;;;3.53;;
61915;SDS011;47868;51.326;6.550;2022-10-16T00:31:43;6.25;;;3.17;;
61915;SDS011;47868;51.326;6.550;2022-10-16T00:34:09;11.85;;;3.78;;
61915;SDS011;47868;51.326;6.550;2022-10-16T00:36:35;8.95;;;3.50;;
61915;SDS011;47868;51.326;6.550;2022-10-16T00:39:01;8.88;;;3.75;;
61915;SDS011;47868;51.326;6.550;2022-10-16T00:41:28;8.77;;;3.38;;
61915;SDS011;47868;51.326;6.550;2022-10-16T00:43:55;8.45;;;3.33;;
61915;SDS011;47868;51.326;6.550;2022-10-16T00:46:23;10.50;;;3.45;;
61915;SDS011;47868;51.326;6.550;2022-10-16T00:48:51;5.15;;;3.60;;
61915;SDS011;47868;51.326;6.550;2022-10-16T00:51:18;5.78;;;3.20;;
61915;SDS011;47868;51.326;6.550;2022-10-16T00:53:45;10.07;;;2.90;;
61915;SDS011;47868;51.326;6.550;2022-10-16T00:56:12;5.75;;;3.35;;
61915;SDS011;47868;51.326;6.550;2022-10-16T00:58:38;7.53;;;3.45;;
61915;SDS011;47868;51.326;6.550;2022-10-16T01:01:04;3.38;;;3.08;;
61915;SDS011;47868;51.326;6.550;2022-10-16T01:03:31;9.38;;;5.90;;
61915;SDS011;47868;51.326;6.550;2022-10-16T01:09:28;10.40;;;6.65;;
61915;SDS011;47868;51.326;6.550;2022-10-16T01:13:55;5.60;;;3.22;;
61915;SDS011;47868;51.326;6.550;2022-10-16T01:16:30;6.13;;;3.53;;
61915;SDS011;47868;51.326;6.550;2022-10-16T01:22:05;3.42;;;2.70;;
61915;SDS011;47868;51.326;6.550;2022-10-16T01:24:37;9.38;;;2.85;;
61915;SDS011;47868;51.326;6.550;2022-10-16T01:29:53;8.63;;;2.65;;
61915;SDS011;47868;51.326;6.550;2022-10-16T01:32:42;6.10;;;2.70;;
61915;SDS011;47868;51.326;6.550;2022-10-16T01:35:11;4.00;;;2.50;;
61915;SDS011;47868;51.326;6.550;2022-10-16T01:40:07;3.13;;;2.30;;
61915;SDS011;47868;51.326;6.550;2022-10-16T01:42:36;7.18;;;2.45;;
61915;SDS011;47868;51.326;6.550;2022-10-16T01:45:03;6.60;;;2.42;;
61915;SDS011;47868;51.326;6.550;2022-10-16T01:47:32;2.85;;;2.17;;
61915;SDS011;47868;51.326;6.550;2022-10-16T01:49:59;4.15;;;2.13;;
61915;SDS011;47868;51.326;6.550;2022-10-16T01:52:26;3.10;;;1.92;;
61915;SDS011;47868;51.326;6.550;2022-10-16T01:54:53;7.03;;;2.00;;
61915;SDS011;47868;51.326;6.550;2022-10-16T01:57:20;3.78;;;2.15;;
61915;SDS011;47868;51.326;6.550;2022-10-16T01:59:48;4.63;;;1.83;;
61915;SDS011;47868;51.326;6.550;2022-10-16T02:02:15;8.02;;;1.90;;
61915;SDS011;47868;51.326;6.550;2022-10-16T02:04:44;3.20;;;1.90;;
61915;SDS011;47868;51.326;6.550;2022-10-16T02:07:11;2.63;;;1.88;;
61915;SDS011;47868;51.326;6.550;2022-10-16T02:09:37;3.95;;;2.00;;
61915;SDS011;47868;51.326;6.550;2022-10-16T02:12:22;2.83;;;1.90;;
61915;SDS011;47868;51.326;6.550;2022-10-16T02:14:49;2.97;;;2.10;;
61915;SDS011;47868;51.326;6.550;2022-10-16T02:17:17;8.10;;;2.13;;
61915;SDS011;47868;51.326;6.550;2022-10-16T02:19:43;11.82;;;2.47;;
61915;SDS011;47868;51.326;6.550;2022-10-16T02:22:13;6.18;;;1.83;;
61915;SDS011;47868;51.326;6.550;2022-10-16T02:27:10;5.97;;;1.98;;
61915;SDS011;47868;51.326;6.550;2022-10-16T02:29:41;6.10;;;2.00;;
61915;SDS011;47868;51.326;6.550;2022-10-16T02:32:10;9.07;;;1.70;;
61915;SDS011;47868;51.326;6.550;2022-10-16T02:34:36;3.53;;;2.00;;
61915;SDS011;47868;51.326;6.550;2022-10-16T02:37:03;2.33;;;1.50;;
61915;SDS011;47868;51.326;6.550;2022-10-16T02:39:30;5.70;;;1.83;;
61915;SDS011;47868;51.326;6.550;2022-10-16T02:41:56;5.15;;;1.50;;
61915;SDS011;47868;51.326;6.550;2022-10-16T02:44:22;3.25;;;1.67;;
61915;SDS011;47868;51.326;6.550;2022-10-16T02:46:48;4.65;;;1.83;;
61915;SDS011;47868;51.326;6.550;2022-10-16T02:49:14;2.63;;;1.80;;
61915;SDS011;47868;51.326;6.550;2022-10-16T02:51:40;1.88;;;1.50;;
61915;SDS011;47868;51.326;6.550;2022-10-16T02:54:06;5.00;;;1.70;;
61915;SDS011;47868;51.326;6.550;2022-10-16T02:56:33;3.22;;;1.27;;
61915;SDS011;47868;51.326;6.550;2022-10-16T02:58:59;1.52;;;1.40;;
61915;SDS011;47868;51.326;6.550;2022-10-16T03:01:25;7.15;;;1.65;;
61915;SDS011;47868;51.326;6.550;2022-10-16T03:03:51;6.88;;;1.83;;
61915;SDS011;47868;51.326;6.550;2022-10-16T03:06:17;2.97;;;1.42;;
61915;SDS011;47868;51.326;6.550;2022-10-16T03:08:44;5.10;;;1.55;;
61915;SDS011;47868;51.326;6.550;2022-10-16T03:11:10;3.90;;;1.73;;
61915;SDS011;47868;51.326;6.550;2022-10-16T03:13:36;10.68;;;2.10;;
61915;SDS011;47868;51.326;6.550;2022-10-16T03:16:02;5.55;;;2.03;;
61915;SDS011;47868;51.326;6.550;2022-10-16T03:18:28;2.55;;;1.52;;
61915;SDS011;47868;51.326;6.550;2022-10-16T03:20:54;4.55;;;1.48;;
61915;SDS011;47868;51.326;6.550;2022-10-16T03:23:20;3.10;;;1.60;;
61915;SDS011;47868;51.326;6.550;2022-10-16T03:25:46;5.32;;;1.70;;
61915;SDS011;47868;51.326;6.550;2022-10-16T03:28:12;5.57;;;1.92;;
61915;SDS011;47868;51.326;6.550;2022-10-16T03:30:38;2.63;;;1.63;;
61915;SDS011;47868;51.326;6.550;2022-10-16T03:33:04;1.70;;;1.27;;
61915;SDS011;47868;51.326;6.550;2022-10-16T03:35:31;6.78;;;1.85;;
61915;SDS011;47868;51.326;6.550;2022-10-16T03:37:58;5.18;;;1.60;;
61915;SDS011;47868;51.326;6.550;2022-10-16T03:40:24;7.93;;;2.00;;
61915;SDS011;47868;51.326;6.550;2022-10-16T03:42:50;5.10;;;1.45;;
61915;SDS011;47868;51.326;6.550;2022-10-16T03:45:16;4.65;;;1.80;;
61915;SDS011;47868;51.326;6.550;2022-10-16T03:47:42;2.10;;;1.55;;
61915;SDS011;47868;51.326;6.550;2022-10-16T03:50:08;1.90;;;1.40;;
61915;SDS011;47868;51.326;6.550;2022-10-16T03:52:34;4.18;;;1.92;;
61915;SDS011;47868;51.326;6.550;2022-10-16T03:55:00;3.85;;;1.42;;
61915;SDS011;47868;51.326;6.550;2022-10-16T03:57:26;3.05;;;1.50;;
61915;SDS011;47868;51.326;6.550;2022-10-16T03:59:53;2.63;;;1.60;;
61915;SDS011;47868;51.326;6.550;2022-10-16T04:02:19;3.55;;;1.80;;
61915;SDS011;47868;51.326;6.550;2022-10-16T04:04:45;4.15;;;1.65;;
61915;SDS011;47868;51.326;6.550;2022-10-16T04:07:11;3.35;;;1.73;;
61915;SDS011;47868;51.326;6.550;2022-10-16T04:09:37;1.42;;;1.25;;
61915;SDS011;47868;51.326;6.550;2022-10-16T04:12:03;3.08;;;1.80;;
61915;SDS011;47868;51.326;6.550;2022-10-16T04:14:29;8.90;;;1.58;;
61915;SDS011;47868;51.326;6.550;2022-10-16T04:16:55;5.20;;;1.50;;
61915;SDS011;47868;51.326;6.550;2022-10-16T04:19:21;4.40;;;1.55;;
61915;SDS011;47868;51.326;6.550;2022-10-16T04:21:47;3.30;;;1.60;;
61915;SDS011;47868;51.326;6.550;2022-10-16T04:24:13;4.50;;;1.80;;
61915;SDS011;47868;51.326;6.550;2022-10-16T04:26:39;3.90;;;1.60;;
61915;SDS011;47868;51.326;6.550;2022-10-16T04:29:05;2.92;;;1.08;;
61915;SDS011;47868;51.326;6.550;2022-10-16T04:31:32;1.95;;;1.40;;
61915;SDS011;47868;51.326;6.550;2022-10-16T04:33:58;2.50;;;1.42;;
61915;SDS011;47868;51.326;6.550;2022-10-16T04:36:24;6.32;;;1.90;;
61915;SDS011;47868;51.326;6.550;2022-10-16T04:38:50;4.20;;;1.35;;
61915;SDS011;47868;51.326;6.550;2022-10-16T04:41:16;3.28;;;1.70;;
61915;SDS011;47868;51.326;6.550;2022-10-16T04:43:42;6.75;;;1.85;;
61915;SDS011;47868;51.326;6.550;2022-10-16T04:46:08;1.38;;;1.27;;
61915;SDS011;47868;51.326;6.550;2022-10-16T04:48:35;3.22;;;1.45;;
61915;SDS011;47868;51.326;6.550;2022-10-16T04:51:01;2.25;;;1.40;;
61915;SDS011;47868;51.326;6.550;2022-10-16T04:53:27;4.80;;;1.50;;
61915;SDS011;47868;51.326;6.550;2022-10-16T04:55:53;1.55;;;1.33;;
61915;SDS011;47868;51.326;6.550;2022-10-16T04:58:20;2.17;;;1.40;;
61915;SDS011;47868;51.326;6.550;2022-10-16T05:00:47;8.27;;;1.65;;
61915;SDS011;47868;51.326;6.550;2022-10-16T05:03:13;5.30;;;1.40;;
61915;SDS011;47868;51.326;6.550;2022-10-16T05:05:43;3.95;;;1.30;;
61915;SDS011;47868;51.326;6.550;2022-10-16T05:08:09;4.57;;;1.60;;
61915;SDS011;47868;51.326;6.550;2022-10-16T05:10:36;4.65;;;1.50;;
61915;SDS011;47868;51.326;6.550;2022-10-16T05:13:02;3.47;;;1.45;;
61915;SDS011;47868;51.326;6.550;2022-10-16T05:15:28;3.20;;;1.40;;
61915;SDS011;47868;51.326;6.550;2022-10-16T05:17:54;4.07;;;1.60;;
61915;SDS011;47868;51.326;6.550;2022-10-16T05:20:21;6.03;;;1.75;;
61915;SDS011;47868;51.326;6.550;2022-10-16T05:22:47;4.57;;;1.80;;
61915;SDS011;47868;51.326;6.550;2022-10-16T05:25:13;7.97;;;1.70;;
61915;SDS011;47868;51.326;6.550;2022-10-16T05:27:40;3.75;;;1.80;;
61915;SDS011;47868;51.326;6.550;2022-10-16T05:30:06;1.75;;;1.65;;
61915;SDS011;47868;51.326;6.550;2022-10-16T05:32:32;2.55;;;1.38;;
61915;SDS011;47868;51.326;6.550;2022-10-16T05:34:58;6.55;;;1.85;;
61915;SDS011;47868;51.326;6.550;2022-10-16T05:37:25;3.47;;;1.60;;
61915;SDS011;47868;51.326;6.550;2022-10-16T05:39:51;4.75;;;1.60;;
61915;SDS011;47868;51.326;6.550;2022-10-16T05:42:17;5.95;;;1.80;;
61915;SDS011;47868;51.326;6.550;2022-10-16T05:44:43;3.75;;;1.77;;
61915;SDS011;47868;51.326;6.550;2022-10-16T05:47:10;5.00;;;1.90;;
61915;SDS011;47868;51.326;6.550;2022-10-16T05:49:36;7.55;;;1.75;;
61915;SDS011;47868;51.326;6.550;2022-10-16T05:52:02;7.70;;;2.30;;
61915;SDS011;47868;51.326;6.550;2022-10-16T05:54:28;2.97;;;2.05;;
61915;SDS011;47868;51.326;6.550;2022-10-16T05:56:54;4.97;;;1.58;;
61915;SDS011;47868;51.326;6.550;2022-10-16T05:59:20;1.98;;;1.45;;
61915;SDS011;47868;51.326;6.550;2022-10-16T06:01:46;2.22;;;2.03;;
61915;SDS011;47868;51.326;6.550;2022-10-16T06:04:12;5.63;;;1.90;;
61915;SDS011;47868;51.326;6.550;2022-10-16T06:06:38;6.05;;;1.92;;
61915;SDS011;47868;51.326;6.550;2022-10-16T06:09:04;3.10;;;1.90;;
61915;SDS011;47868;51.326;6.550;2022-10-16T06:11:31;7.65;;;2.28;;
61915;SDS011;47868;51.326;6.550;2022-10-16T06:13:59;1.75;;;1.65;;
61915;SDS011;47868;51.326;6.550;2022-10-16T06:16:27;2.72;;;1.80;;
61915;SDS011;47868;51.326;6.550;2022-10-16T06:18:53;4.88;;;1.85;;
61915;SDS011;47868;51.326;6.550;2022-10-16T06:21:21;3.35;;;1.73;;
61915;SDS011;47868;51.326;6.550;2022-10-16T06:23:50;5.82;;;2.00;;
61915;SDS011;47868;51.326;6.550;2022-10-16T06:26:17;4.70;;;2.20;;
61915;SDS011;47868;51.326;6.550;2022-10-16T06:28:43;2.60;;;1.92;;
61915;SDS011;47868;51.326;6.550;2022-10-16T06:31:10;2.25;;;2.00;;
61915;SDS011;47868;51.326;6.550;2022-10-16T06:33:37;2.53;;;1.73;;
61915;SDS011;47868;51.326;6.550;2022-10-16T06:38:29;3.67;;;1.98;;
61915;SDS011;47868;51.326;6.550;2022-10-16T06:40:56;4.28;;;2.22;;
61915;SDS011;47868;51.326;6.550;2022-10-16T06:43:22;3.35;;;2.45;;
61915;SDS011;47868;51.326;6.550;2022-10-16T06:45:55;5.20;;;2.25;;
61915;SDS011;47868;51.326;6.550;2022-10-16T06:48:21;3.92;;;2.47;;
61915;SDS011;47868;51.326;6.550;2022-10-16T06:51:30;3.08;;;1.98;;
61915;SDS011;47868;51.326;6.550;2022-10-16T06:53:38;5.90;;;2.25;;
61915;SDS011;47868;51.326;6.550;2022-10-16T06:56:15;2.47;;;1.90;;
61915;SDS011;47868;51.326;6.550;2022-10-16T06:58:42;2.70;;;1.92;;
61915;SDS011;47868;51.326;6.550;2022-10-16T07:01:08;4.47;;;2.13;;
61915;SDS011;47868;51.326;6.550;2022-10-16T07:03:38;9.32;;;2.38;;
61915;SDS011;47868;51.326;6.550;2022-10-16T07:06:05;7.05;;;2.30;;
61915;SDS011;47868;51.326;6.550;2022-10-16T07:08:32;3.88;;;2.13;;
61915;SDS011;47868;51.326;6.550;2022-10-16T07:11:00;5.03;;;2.75;;
61915;SDS011;47868;51.326;6.550;2022-10-16T07:13:26;6.43;;;2.67;;
61915;SDS011;47868;51.326;6.550;2022-10-16T07:15:52;3.83;;;2.70;;
61915;SDS011;47868;51.326;6.550;2022-10-16T07:18:18;7.65;;;2.53;;
61915;SDS011;47868;51.326;6.550;2022-10-16T07:20:44;7.25;;;2.80;;
61915;SDS011;47868;51.326;6.550;2022-10-16T07:23:10;3.25;;;2.63;;
61915;SDS011;47868;51.326;6.550;2022-10-16T07:25:36;7.03;;;2.95;;
61915;SDS011;47868;51.326;6.550;2022-10-16T07:28:02;3.65;;;2.72;;
61915;SDS011;47868;51.326;6.550;2022-10-16T07:30:29;2.95;;;2.55;;
61915;SDS011;47868;51.326;6.550;2022-10-16T07:32:55;5.53;;;2.83;;
61915;SDS011;47868;51.326;6.550;2022-10-16T07:35:21;7.05;;;2.72;;
61915;SDS011;47868;51.326;6.550;2022-10-16T07:37:47;9.15;;;3.08;;
61915;SDS011;47868;51.326;6.550;2022-10-16T07:40:13;2.67;;;2.47;;
61915;SDS011;47868;51.326;6.550;2022-10-16T07:42:39;7.20;;;3.03;;
61915;SDS011;47868;51.326;6.550;2022-10-16T07:45:05;3.95;;;3.25;;
61915;SDS011;47868;51.326;6.550;2022-10-16T07:47:31;3.35;;;2.67;;
61915;SDS011;47868;51.326;6.550;2022-10-16T07:49:57;6.57;;;2.53;;
61915;SDS011;47868;51.326;6.550;2022-10-16T07:52:23;4.40;;;2.63;;
61915;SDS011;47868;51.326;6.550;2022-10-16T07:54:49;2.80;;;2.60;;
61915;SDS011;47868;51.326;6.550;2022-10-16T07:57:16;5.03;;;2.95;;
61915;SDS011;47868;51.326;6.550;2022-10-16T07:59:44;4.13;;;3.00;;
61915;SDS011;47868;51.326;6.550;2022-10-16T08:02:11;4.03;;;2.83;;
61915;SDS011;47868;51.326;6.550;2022-10-16T08:04:37;4.93;;;2.53;;
61915;SDS011;47868;51.326;6.550;2022-10-16T08:07:03;7.18;;;2.15;;
61915;SDS011;47868;51.326;6.550;2022-10-16T08:09:29;5.47;;;2.53;;
61915;SDS011;47868;51.326;6.550;2022-10-16T08:11:55;6.43;;;2.80;;
61915;SDS011;47868;51.326;6.550;2022-10-16T08:14:21;2.58;;;2.25;;
61915;SDS011;47868;51.326;6.550;2022-10-16T08:16:47;2.72;;;2.30;;
61915;SDS011;47868;51.326;6.550;2022-10-16T08:19:13;7.18;;;2.70;;
61915;SDS011;47868;51.326;6.550;2022-10-16T08:21:40;4.25;;;2.08;;
61915;SDS011;47868;51.326;6.550;2022-10-16T08:24:06;6.65;;;2.40;;
61915;SDS011;47868;51.326;6.550;2022-10-16T08:26:33;3.45;;;2.38;;
61915;SDS011;47868;51.326;6.550;2022-10-16T08:28:59;2.67;;;2.05;;
61915;SDS011;47868;51.326;6.550;2022-10-16T08:31:25;5.78;;;2.33;;
61915;SDS011;47868;51.326;6.550;2022-10-16T08:33:52;5.22;;;2.60;;
61915;SDS011;47868;51.326;6.550;2022-10-16T08:36:18;2.40;;;1.85;;
61915;SDS011;47868;51.326;6.550;2022-10-16T08:38:46;2.10;;;1.88;;
61915;SDS011;47868;51.326;6.550;2022-10-16T08:43:43;4.43;;;2.15;;
61915;SDS011;47868;51.326;6.550;2022-10-16T08:51:09;3.67;;;1.77;;
61915;SDS011;47868;51.326;6.550;2022-10-16T08:53:58;4.20;;;1.83;;
61915;SDS011;47868;51.326;6.550;2022-10-16T08:56:23;3.58;;;1.90;;
61915;SDS011;47868;51.326;6.550;2022-10-16T08:58:50;4.80;;;2.00;;
61915;SDS011;47868;51.326;6.550;2022-10-16T09:01:17;2.65;;;1.98;;
61915;SDS011;47868;51.326;6.550;2022-10-16T09:06:17;2.63;;;1.70;;
61915;SDS011;47868;51.326;6.550;2022-10-16T09:13:43;7.60;;;1.77;;
61915;SDS011;47868;51.326;6.550;2022-10-16T09:16:28;3.00;;;1.85;;
61915;SDS011;47868;51.326;6.550;2022-10-16T09:19:01;3.88;;;1.70;;
61915;SDS011;47868;51.326;6.550;2022-10-16T09:23:57;6.07;;;1.90;;
61915;SDS011;47868;51.326;6.550;2022-10-16T09:26:24;4.30;;;1.65;;
61915;SDS011;47868;51.326;6.550;2022-10-16T09:28:51;6.70;;;1.80;;
61915;SDS011;47868;51.326;6.550;2022-10-16T09:31:19;2.80;;;1.90;;
61915;SDS011;47868;51.326;6.550;2022-10-16T09:33:47;2.13;;;1.40;;
61915;SDS011;47868;51.326;6.550;2022-10-16T09:36:14;2.30;;;1.30;;
61915;SDS011;47868;51.326;6.550;2022-10-16T09:38:40;3.42;;;1.58;;
61915;SDS011;47868;51.326;6.550;2022-10-16T09:41:19;4.57;;;1.70;;
61915;SDS011;47868;51.326;6.550;2022-10-16T09:43:51;2.25;;;1.40;;
61915;SDS011;47868;51.326;6.550;2022-10-16T09:46:31;4.13;;;1.73;;
61915;SDS011;47868;51.326;6.550;2022-10-16T09:49:01;7.45;;;1.50;;
61915;SDS011;47868;51.326;6.550;2022-10-16T09:53:54;3.67;;;1.60;;
61915;SDS011;47868;51.326;6.550;2022-10-16T09:56:22;4.38;;;1.20;;
61915;SDS011;47868;51.326;6.550;2022-10-16T09:58:52;1.83;;;1.20;;
61915;SDS011;47868;51.326;6.550;2022-10-16T10:01:19;4.43;;;1.15;;
61915;SDS011;47868;51.326;6.550;2022-10-16T10:03:45;3.05;;;1.35;;
61915;SDS011;47868;51.326;6.550;2022-10-16T10:06:21;3.13;;;1.90;;
61915;SDS011;47868;51.326;6.550;2022-10-16T10:08:59;2.08;;;1.30;;
61915;SDS011;47868;51.326;6.550;2022-10-16T10:16:52;2.58;;;1.35;;
61915;SDS011;47868;51.326;6.550;2022-10-16T10:19:22;3.40;;;1.40;;
61915;SDS011;47868;51.326;6.550;2022-10-16T10:21:49;3.55;;;1.67;;
61915;SDS011;47868;51.326;6.550;2022-10-16T10:24:16;2.97;;;1.40;;
61915;SDS011;47868;51.326;6.550;2022-10-16T10:29:34;5.20;;;1.08;;
61915;SDS011;47868;51.326;6.550;2022-10-16T10:32:06;6.43;;;1.50;;
61915;SDS011;47868;51.326;6.550;2022-10-16T10:39:49;5.88;;;1.45;;
61915;SDS011;47868;51.326;6.550;2022-10-16T10:42:21;4.90;;;1.40;;
61915;SDS011;47868;51.326;6.550;2022-10-16T10:44:54;3.72;;;1.38;;
61915;SDS011;47868;51.326;6.550;2022-10-16T10:57:51;2.42;;;1.40;;
61915;SDS011;47868;51.326;6.550;2022-10-16T11:00:30;4.38;;;1.27;;
61915;SDS011;47868;51.326;6.550;2022-10-16T11:05:56;2.65;;;1.65;;
61915;SDS011;47868;51.326;6.550;2022-10-16T11:08:41;2.97;;;1.45;;
61915;SDS011;47868;51.326;6.550;2022-10-16T11:13:55;4.22;;;1.17;;
61915;SDS011;47868;51.326;6.550;2022-10-16T11:16:27;2.28;;;1.15;;
61915;SDS011;47868;51.326;6.550;2022-10-16T11:21:53;2.42;;;1.10;;
61915;SDS011;47868;51.326;6.550;2022-10-16T11:26:47;6.75;;;1.17;;
61915;SDS011;47868;51.326;6.550;2022-10-16T11:29:20;2.03;;;1.00;;
61915;SDS011;47868;51.326;6.550;2022-10-16T11:31:59;5.35;;;1.42;;
61915;SDS011;47868;51.326;6.550;2022-10-16T11:37:05;3.33;;;1.42;;
61915;SDS011;47868;51.326;6.550;2022-10-16T11:39:32;1.83;;;1.00;;
61915;SDS011;47868;51.326;6.550;2022-10-16T11:44:36;3.70;;;1.33;;
61915;SDS011;47868;51.326;6.550;2022-10-16T11:49:33;1.45;;;1.25;;
61915;SDS011;47868;51.326;6.550;2022-10-16T11:56:59;3.20;;;1.20;;
61915;SDS011;47868;51.326;6.550;2022-10-16T11:59:31;2.95;;;1.55;;
61915;SDS011;47868;51.326;6.550;2022-10-16T12:04:47;3.35;;;1.48;;
61915;SDS011;47868;51.326;6.550;2022-10-16T12:07:17;1.55;;;1.20;;
61915;SDS011;47868;51.326;6.550;2022-10-16T12:09:44;2.22;;;0.90;;
61915;SDS011;47868;51.326;6.550;2022-10-16T12:12:26;2.45;;;1.15;;
61915;SDS011;47868;51.326;6.550;2022-10-16T12:17:37;2.92;;;1.10;;
61915;SDS011;47868;51.326;6.550;2022-10-16T12:25:33;4.97;;;1.65;;
61915;SDS011;47868;51.326;6.550;2022-10-16T12:30:30;4.53;;;1.38;;
61915;SDS011;47868;51.326;6.550;2022-10-16T12:32:57;3.85;;;1.40;;
61915;SDS011;47868;51.326;6.550;2022-10-16T12:35:25;2.22;;;1.33;;
61915;SDS011;47868;51.326;6.550;2022-10-16T12:37:52;3.45;;;1.60;;
61915;SDS011;47868;51.326;6.550;2022-10-16T12:42:47;2.72;;;1.13;;
61915;SDS011;47868;51.326;6.550;2022-10-16T12:45:27;4.03;;;1.35;;
61915;SDS011;47868;51.326;6.550;2022-10-16T12:47:53;5.22;;;1.48;;
61915;SDS011;47868;51.326;6.550;2022-10-16T12:50:25;3.38;;;1.30;;
61915;SDS011;47868;51.326;6.550;2022-10-16T12:52:51;4.88;;;1.58;;
61915;SDS011;47868;51.326;6.550;2022-10-16T12:55:19;3.72;;;1.75;;
61915;SDS011;47868;51.326;6.550;2022-10-16T12:57:55;2.15;;;1.17;;
61915;SDS011;47868;51.326;6.550;2022-10-16T13:05:50;3.15;;;1.35;;
61915;SDS011;47868;51.326;6.550;2022-10-16T13:16:14;3.17;;;1.10;;
61915;SDS011;47868;51.326;6.550;2022-10-16T13:18:45;2.83;;;0.90;;
61915;SDS011;47868;51.326;6.550;2022-10-16T13:28:58;2.65;;;1.50;;
61915;SDS011;47868;51.326;6.550;2022-10-16T13:31:25;6.50;;;1.23;;
61915;SDS011;47868;51.326;6.550;2022-10-16T13:33:52;2.70;;;1.65;;
61915;SDS011;47868;51.326;6.550;2022-10-16T13:36:23;2.90;;;1.67;;
61915;SDS011;47868;51.326;6.550;2022-10-16T13:41:45;4.22;;;1.27;;
61915;SDS011;47868;51.326;6.550;2022-10-16T13:44:13;2.42;;;1.50;;
61915;SDS011;47868;51.326;6.550;2022-10-16T13:46:41;2.42;;;1.45;;
61915;SDS011;47868;51.326;6.550;2022-10-16T13:49:14;1.25;;;1.10;;
61915;SDS011;47868;51.326;6.550;2022-10-16T13:51:41;1.35;;;1.20;;
61915;SDS011;47868;51.326;6.550;2022-10-16T13:54:19;4.60;;;1.35;;
61915;SDS011;47868;51.326;6.550;2022-10-16T13:56:45;2.45;;;1.30;;
61915;SDS011;47868;51.326;6.550;2022-10-16T13:59:24;7.53;;;1.60;;
61915;SDS011;47868;51.326;6.550;2022-10-16T14:01:52;1.50;;;0.93;;
61915;SDS011;47868;51.326;6.550;2022-10-16T14:04:19;3.55;;;1.25;;
61915;SDS011;47868;51.326;6.550;2022-10-16T14:06:46;3.92;;;1.52;;
61915;SDS011;47868;51.326;6.550;2022-10-16T14:09:27;4.07;;;1.60;;
61915;SDS011;47868;51.326;6.550;2022-10-16T14:11:55;3.95;;;2.13;;
61915;SDS011;47868;51.326;6.550;2022-10-16T14:14:23;4.32;;;1.98;;
61915;SDS011;47868;51.326;6.550;2022-10-16T14:16:50;1.52;;;1.30;;
61915;SDS011;47868;51.326;6.550;2022-10-16T14:19:26;3.25;;;1.35;;
61915;SDS011;47868;51.326;6.550;2022-10-16T14:21:53;4.13;;;1.30;;
61915;SDS011;47868;51.326;6.550;2022-10-16T14:24:40;2.35;;;1.20;;
61915;SDS011;47868;51.326;6.550;2022-10-16T14:27:24;3.42;;;1.48;;
61915;SDS011;47868;51.326;6.550;2022-10-16T14:30:03;6.88;;;1.55;;
61915;SDS011;47868;51.326;6.550;2022-10-16T14:32:31;2.08;;;1.35;;
61915;SDS011;47868;51.326;6.550;2022-10-16T14:34:57;2.53;;;1.80;;
61915;SDS011;47868;51.326;6.550;2022-10-16T14:37:24;3.20;;;1.30;;
61915;SDS011;47868;51.326;6.550;2022-10-16T14:39:50;4.68;;;1.35;;
61915;SDS011;47868;51.326;6.550;2022-10-16T14:42:17;4.65;;;2.00;;
61915;SDS011;47868;51.326;6.550;2022-10-16T14:44:44;3.45;;;1.30;;
61915;SDS011;47868;51.326;6.550;2022-10-16T14:47:15;2.53;;;1.27;;
61915;SDS011;47868;51.326;6.550;2022-10-16T14:49:47;3.40;;;1.73;;
61915;SDS011;47868;51.326;6.550;2022-10-16T14:52:13;5.80;;;1.70;;
61915;SDS011;47868;51.326;6.550;2022-10-16T14:54:39;5.22;;;1.92;;
61915;SDS011;47868;51.326;6.550;2022-10-16T14:57:05;2.20;;;1.70;;
61915;SDS011;47868;51.326;6.550;2022-10-16T14:59:41;4.60;;;1.83;;
61915;SDS011;47868;51.326;6.550;2022-10-16T15:04:39;3.15;;;1.73;;
61915;SDS011;47868;51.326;6.550;2022-10-16T15:07:06;2.90;;;1.90;;
61915;SDS011;47868;51.326;6.550;2022-10-16T15:09:32;1.63;;;1.40;;
61915;SDS011;47868;51.326;6.550;2022-10-16T15:11:58;3.17;;;1.80;;
61915;SDS011;47868;51.326;6.550;2022-10-16T15:14:25;7.65;;;1.60;;
61915;SDS011;47868;51.326;6.550;2022-10-16T15:16:51;5.63;;;1.50;;
61915;SDS011;47868;51.326;6.550;2022-10-16T15:19:17;2.95;;;1.58;;
61915;SDS011;47868;51.326;6.550;2022-10-16T15:21:43;5.03;;;2.28;;
61915;SDS011;47868;51.326;6.550;2022-10-16T15:24:11;1.98;;;1.48;;
61915;SDS011;47868;51.326;6.550;2022-10-16T15:26:38;9.07;;;2.10;;
61915;SDS011;47868;51.326;6.550;2022-10-16T15:29:04;7.90;;;2.13;;
61915;SDS011;47868;51.326;6.550;2022-10-16T15:31:30;5.88;;;1.95;;
61915;SDS011;47868;51.326;6.550;2022-10-16T15:33:56;2.75;;;2.10;;
61915;SDS011;47868;51.326;6.550;2022-10-16T15:36:32;2.63;;;2.25;;
61915;SDS011;47868;51.326;6.550;2022-10-16T15:39:05;5.43;;;2.30;;
61915;SDS011;47868;51.326;6.550;2022-10-16T15:41:32;4.85;;;1.88;;
61915;SDS011;47868;51.326;6.550;2022-10-16T15:43:58;3.63;;;2.60;;
61915;SDS011;47868;51.326;6.550;2022-10-16T15:46:24;3.42;;;2.17;;
61915;SDS011;47868;51.326;6.550;2022-10-16T15:48:50;5.47;;;2.35;;
61915;SDS011;47868;51.326;6.550;2022-10-16T15:51:17;4.70;;;2.25;;
61915;SDS011;47868;51.326;6.550;2022-10-16T15:53:43;3.13;;;2.25;;
61915;SDS011;47868;51.326;6.550;2022-10-16T15:56:11;5.88;;;2.53;;
61915;SDS011;47868;51.326;6.550;2022-10-16T15:58:37;5.45;;;2.70;;
61915;SDS011;47868;51.326;6.550;2022-10-16T16:01:03;7.00;;;4.10;;
61915;SDS011;47868;51.326;6.550;2022-10-16T16:03:30;7.88;;;3.67;;
61915;SDS011;47868;51.326;6.550;2022-10-16T16:05:56;4.47;;;3.45;;
61915;SDS011;47868;51.326;6.550;2022-10-16T16:08:22;4.47;;;2.60;;
61915;SDS011;47868;51.326;6.550;2022-10-16T16:10:58;6.25;;;2.13;;
61915;SDS011;47868;51.326;6.550;2022-10-16T16:13:24;4.97;;;2.10;;
61915;SDS011;47868;51.326;6.550;2022-10-16T16:15:50;7.78;;;2.63;;
61915;SDS011;47868;51.326;6.550;2022-10-16T16:18:16;6.30;;;3.20;;
61915;SDS011;47868;51.326;6.550;2022-10-16T16:20:43;5.45;;;3.50;;
61915;SDS011;47868;51.326;6.550;2022-10-16T16:23:09;6.38;;;3.40;;
61915;SDS011;47868;51.326;6.550;2022-10-16T16:25:37;6.00;;;3.50;;
61915;SDS011;47868;51.326;6.550;2022-10-16T16:28:03;4.88;;;3.38;;
61915;SDS011;47868;51.326;6.550;2022-10-16T16:30:29;6.50;;;4.22;;
61915;SDS011;47868;51.326;6.550;2022-10-16T16:32:55;6.93;;;4.55;;
61915;SDS011;47868;51.326;6.550;2022-10-16T16:35:21;6.53;;;4.20;;
61915;SDS011;47868;51.326;6.550;2022-10-16T16:37:48;11.70;;;4.88;;
61915;SDS011;47868;51.326;6.550;2022-10-16T16:40:14;12.10;;;5.20;;
61915;SDS011;47868;51.326;6.550;2022-10-16T16:42:40;7.47;;;4.90;;
61915;SDS011;47868;51.326;6.550;2022-10-16T16:45:06;6.35;;;4.55;;
61915;SDS011;47868;51.326;6.550;2022-10-16T16:47:32;6.15;;;4.82;;
61915;SDS011;47868;51.326;6.550;2022-10-16T16:49:58;7.15;;;5.47;;
61915;SDS011;47868;51.326;6.550;2022-10-16T16:52:29;7.65;;;6.00;;
61915;SDS011;47868;51.326;6.550;2022-10-16T16:54:55;10.13;;;6.32;;
61915;SDS011;47868;51.326;6.550;2022-10-16T16:57:21;10.38;;;5.90;;
61915;SDS011;47868;51.326;6.550;2022-10-16T16:59:49;9.88;;;6.90;;